sensor_id;sensor_type;location;lat;lon;timestamp;P1;durP1;ratioP1;P2;durP2;ratioP2
77022;SDS011;65952;51.440;-2.054;2023-03-01T00:01:46;3.90;;;1.83;;
77022;SDS011;65952;51.440;-2.054;2023-03-01T00:04:11;3.35;;;1.83;;
77022;SDS011;65952;51.440;-2.054;2023-03-01T00:06:37;3.67;;;2.00;;
77022;SDS011;65952;51.440;-2.054;2023-03-01T00:09:03;4.00;;;1.95;;
77022;SDS011;65952;51.440;-2.054;2023-03-01T00:11:29;2.85;;;1.60;;
77022;SDS011;65952;51.440;-2.054;2023-03-01T00:13:57;5.65;;;2.17;;
77022;SDS011;65952;51.440;-2.054;2023-03-01T00:16:27;4.13;;;2.30;;
77022;SDS011;65952;51.440;-2.054;2023-03-01T00:18:55;3.72;;;2.00;;
77022;SDS011;65952;51.440;-2.054;2023-03-01T00:21:22;4.10;;;1.90;;
77022;SDS011;65952;51.440;-2.054;2023-03-01T00:23:48;4.43;;;2.03;;
77022;SDS011;65952;51.440;-2.054;2023-03-01T00:26:15;4.82;;;1.90;;
77022;SDS011;65952;51.440;-2.054;2023-03-01T00:28:42;5.20;;;2.20;;
77022;SDS011;65952;51.440;-2.054;2023-03-01T00:31:11;3.67;;;1.60;;
77022;SDS011;65952;51.440;-2.054;2023-03-01T00:33:39;4.47;;;1.70;;
77022;SDS011;65952;51.440;-2.054;2023-03-01T00:36:05;3.03;;;1.48;;
77022;SDS011;65952;51.440;-2.054;2023-03-01T00:38:34;3.60;;;1.77;;
77022;SDS011;65952;51.440;-2.054;2023-03-01T00:41:07;4.13;;;1.80;;
77022;SDS011;65952;51.440;-2.054;2023-03-01T00:43:34;3.80;;;1.88;;
77022;SDS011;65952;51.440;-2.054;2023-03-01T00:46:05;4.13;;;2.10;;
77022;SDS011;65952;51.440;-2.054;2023-03-01T00:48:35;3.97;;;1.67;;
77022;SDS011;65952;51.440;-2.054;2023-03-01T00:51:20;3.88;;;2.10;;
77022;SDS011;65952;51.440;-2.054;2023-03-01T00:53:56;3.88;;;1.90;;
77022;SDS011;65952;51.440;-2.054;2023-03-01T00:56:23;3.58;;;2.00;;
77022;SDS011;65952;51.440;-2.054;2023-03-01T00:58:49;3.75;;;1.92;;
77022;SDS011;65952;51.440;-2.054;2023-03-01T01:01:16;4.47;;;2.13;;
77022;SDS011;65952;51.440;-2.054;2023-03-01T01:04:05;4.93;;;2.40;;
77022;SDS011;65952;51.440;-2.054;2023-03-01T01:06:35;5.18;;;2.20;;
77022;SDS011;65952;51.440;-2.054;2023-03-01T01:09:03;6.82;;;2.42;;
77022;SDS011;65952;51.440;-2.054;2023-03-01T01:11:29;5.25;;;2.20;;
77022;SDS011;65952;51.440;-2.054;2023-03-01T01:13:55;4.65;;;2.10;;
77022;SDS011;65952;51.440;-2.054;2023-03-01T01:16:22;4.22;;;2.20;;
77022;SDS011;65952;51.440;-2.054;2023-03-01T01:18:49;4.82;;;2.20;;
77022;SDS011;65952;51.440;-2.054;2023-03-01T01:21:17;4.13;;;2.00;;
77022;SDS011;65952;51.440;-2.054;2023-03-01T01:23:44;3.80;;;2.03;;
77022;SDS011;65952;51.440;-2.054;2023-03-01T01:26:12;3.13;;;1.80;;
77022;SDS011;65952;51.440;-2.054;2023-03-01T01:28:40;3.97;;;2.05;;
77022;SDS011;65952;51.440;-2.054;2023-03-01T01:31:06;5.60;;;2.30;;
77022;SDS011;65952;51.440;-2.054;2023-03-01T01:33:32;3.28;;;1.83;;
77022;SDS011;65952;51.440;-2.054;2023-03-01T01:35:58;3.92;;;1.70;;
77022;SDS011;65952;51.440;-2.054;2023-03-01T01:38:24;4.70;;;1.90;;
77022;SDS011;65952;51.440;-2.054;2023-03-01T01:40:49;5.13;;;2.05;;
77022;SDS011;65952;51.440;-2.054;2023-03-01T01:43:26;4.20;;;1.85;;
77022;SDS011;65952;51.440;-2.054;2023-03-01T01:46:01;3.55;;;1.70;;
77022;SDS011;65952;51.440;-2.054;2023-03-01T01:48:32;4.28;;;1.70;;
77022;SDS011;65952;51.440;-2.054;2023-03-01T01:51:05;3.75;;;1.85;;
77022;SDS011;65952;51.440;-2.054;2023-03-01T01:53:34;6.55;;;1.92;;
77022;SDS011;65952;51.440;-2.054;2023-03-01T01:56:01;4.22;;;2.03;;
77022;SDS011;65952;51.440;-2.054;2023-03-01T01:58:28;4.47;;;2.20;;
77022;SDS011;65952;51.440;-2.054;2023-03-01T02:00:55;4.88;;;2.30;;
77022;SDS011;65952;51.440;-2.054;2023-03-01T02:03:25;5.05;;;2.28;;
77022;SDS011;65952;51.440;-2.054;2023-03-01T02:08:30;4.60;;;2.20;;
77022;SDS011;65952;51.440;-2.054;2023-03-01T02:10:58;3.83;;;2.25;;
77022;SDS011;65952;51.440;-2.054;2023-03-01T02:13:24;6.82;;;2.28;;
77022;SDS011;65952;51.440;-2.054;2023-03-01T02:15:50;5.93;;;2.20;;
77022;SDS011;65952;51.440;-2.054;2023-03-01T02:18:17;6.47;;;2.47;;
77022;SDS011;65952;51.440;-2.054;2023-03-01T02:23:15;6.35;;;2.95;;
77022;SDS011;65952;51.440;-2.054;2023-03-01T02:28:33;8.30;;;3.63;;
77022;SDS011;65952;51.440;-2.054;2023-03-01T02:31:01;7.20;;;2.70;;
77022;SDS011;65952;51.440;-2.054;2023-03-01T02:33:46;5.90;;;2.80;;
77022;SDS011;65952;51.440;-2.054;2023-03-01T02:36:17;6.93;;;2.72;;
77022;SDS011;65952;51.440;-2.054;2023-03-01T02:38:45;5.20;;;2.85;;
77022;SDS011;65952;51.440;-2.054;2023-03-01T02:41:13;7.90;;;3.22;;
77022;SDS011;65952;51.440;-2.054;2023-03-01T02:43:41;6.68;;;2.75;;
77022;SDS011;65952;51.440;-2.054;2023-03-01T02:46:08;6.03;;;3.00;;
77022;SDS011;65952;51.440;-2.054;2023-03-01T02:48:43;5.15;;;2.60;;
77022;SDS011;65952;51.440;-2.054;2023-03-01T02:51:19;6.22;;;3.00;;
77022;SDS011;65952;51.440;-2.054;2023-03-01T02:56:22;6.28;;;2.90;;
77022;SDS011;65952;51.440;-2.054;2023-03-01T02:58:48;6.72;;;2.97;;
77022;SDS011;65952;51.440;-2.054;2023-03-01T03:01:17;5.45;;;2.40;;
77022;SDS011;65952;51.440;-2.054;2023-03-01T03:03:43;9.80;;;3.20;;
77022;SDS011;65952;51.440;-2.054;2023-03-01T03:06:09;5.38;;;2.40;;
77022;SDS011;65952;51.440;-2.054;2023-03-01T03:08:34;5.65;;;2.85;;
77022;SDS011;65952;51.440;-2.054;2023-03-01T03:11:00;5.93;;;2.50;;
77022;SDS011;65952;51.440;-2.054;2023-03-01T03:13:25;6.18;;;3.10;;
77022;SDS011;65952;51.440;-2.054;2023-03-01T03:15:54;7.68;;;3.40;;
77022;SDS011;65952;51.440;-2.054;2023-03-01T03:18:20;6.32;;;2.78;;
77022;SDS011;65952;51.440;-2.054;2023-03-01T03:20:46;7.28;;;3.00;;
77022;SDS011;65952;51.440;-2.054;2023-03-01T03:23:12;8.40;;;2.88;;
77022;SDS011;65952;51.440;-2.054;2023-03-01T03:25:38;6.05;;;2.92;;
77022;SDS011;65952;51.440;-2.054;2023-03-01T03:28:04;8.18;;;3.15;;
77022;SDS011;65952;51.440;-2.054;2023-03-01T03:30:35;7.40;;;3.33;;
77022;SDS011;65952;51.440;-2.054;2023-03-01T03:33:04;8.48;;;3.33;;
77022;SDS011;65952;51.440;-2.054;2023-03-01T03:35:32;8.00;;;2.83;;
77022;SDS011;65952;51.440;-2.054;2023-03-01T03:38:00;6.95;;;2.83;;
77022;SDS011;65952;51.440;-2.054;2023-03-01T03:40:40;8.48;;;3.42;;
77022;SDS011;65952;51.440;-2.054;2023-03-01T03:43:12;7.72;;;3.30;;
77022;SDS011;65952;51.440;-2.054;2023-03-01T03:45:39;7.63;;;3.20;;
77022;SDS011;65952;51.440;-2.054;2023-03-01T03:48:05;6.88;;;2.90;;
77022;SDS011;65952;51.440;-2.054;2023-03-01T03:50:32;9.98;;;3.58;;
77022;SDS011;65952;51.440;-2.054;2023-03-01T03:52:59;7.10;;;3.00;;
77022;SDS011;65952;51.440;-2.054;2023-03-01T03:55:26;9.35;;;3.00;;
77022;SDS011;65952;51.440;-2.054;2023-03-01T03:57:56;6.63;;;2.90;;
77022;SDS011;65952;51.440;-2.054;2023-03-01T04:00:23;7.82;;;2.80;;
77022;SDS011;65952;51.440;-2.054;2023-03-01T04:02:49;8.00;;;2.70;;
77022;SDS011;65952;51.440;-2.054;2023-03-01T04:05:16;6.85;;;3.22;;
77022;SDS011;65952;51.440;-2.054;2023-03-01T04:07:43;5.82;;;2.47;;
77022;SDS011;65952;51.440;-2.054;2023-03-01T04:10:13;4.82;;;2.50;;
77022;SDS011;65952;51.440;-2.054;2023-03-01T04:12:40;6.03;;;2.30;;
77022;SDS011;65952;51.440;-2.054;2023-03-01T04:15:06;5.10;;;2.38;;
77022;SDS011;65952;51.440;-2.054;2023-03-01T04:17:42;6.60;;;2.67;;
77022;SDS011;65952;51.440;-2.054;2023-03-01T04:20:10;4.53;;;2.17;;
77022;SDS011;65952;51.440;-2.054;2023-03-01T04:22:38;5.32;;;2.50;;
77022;SDS011;65952;51.440;-2.054;2023-03-01T04:25:05;7.45;;;3.00;;
77022;SDS011;65952;51.440;-2.054;2023-03-01T04:27:32;4.60;;;2.13;;
77022;SDS011;65952;51.440;-2.054;2023-03-01T04:29:58;5.18;;;2.17;;
77022;SDS011;65952;51.440;-2.054;2023-03-01T04:32:24;6.63;;;2.17;;
77022;SDS011;65952;51.440;-2.054;2023-03-01T04:34:49;5.00;;;2.58;;
77022;SDS011;65952;51.440;-2.054;2023-03-01T04:37:14;7.28;;;2.22;;
77022;SDS011;65952;51.440;-2.054;2023-03-01T04:39:41;4.50;;;2.20;;
77022;SDS011;65952;51.440;-2.054;2023-03-01T04:42:11;3.42;;;1.73;;
77022;SDS011;65952;51.440;-2.054;2023-03-01T04:44:36;6.95;;;2.47;;
77022;SDS011;65952;51.440;-2.054;2023-03-01T04:47:02;5.82;;;1.90;;
77022;SDS011;65952;51.440;-2.054;2023-03-01T04:49:28;4.88;;;1.92;;
77022;SDS011;65952;51.440;-2.054;2023-03-01T04:51:53;3.63;;;1.85;;
77022;SDS011;65952;51.440;-2.054;2023-03-01T04:54:19;3.97;;;1.70;;
77022;SDS011;65952;51.440;-2.054;2023-03-01T04:56:44;4.03;;;2.00;;
77022;SDS011;65952;51.440;-2.054;2023-03-01T04:59:09;4.05;;;1.88;;
77022;SDS011;65952;51.440;-2.054;2023-03-01T05:01:37;4.38;;;1.90;;
77022;SDS011;65952;51.440;-2.054;2023-03-01T05:04:03;4.45;;;1.85;;
77022;SDS011;65952;51.440;-2.054;2023-03-01T05:06:30;5.75;;;1.85;;
77022;SDS011;65952;51.440;-2.054;2023-03-01T05:08:56;3.55;;;1.83;;
77022;SDS011;65952;51.440;-2.054;2023-03-01T05:11:22;2.78;;;1.60;;
77022;SDS011;65952;51.440;-2.054;2023-03-01T05:13:47;4.72;;;1.90;;
77022;SDS011;65952;51.440;-2.054;2023-03-01T05:16:15;4.95;;;2.00;;
77022;SDS011;65952;51.440;-2.054;2023-03-01T05:18:41;5.28;;;1.83;;
77022;SDS011;65952;51.440;-2.054;2023-03-01T05:21:09;4.95;;;1.60;;
77022;SDS011;65952;51.440;-2.054;2023-03-01T05:23:37;6.13;;;1.85;;
77022;SDS011;65952;51.440;-2.054;2023-03-01T05:26:04;4.55;;;1.80;;
77022;SDS011;65952;51.440;-2.054;2023-03-01T05:28:31;5.43;;;2.17;;
77022;SDS011;65952;51.440;-2.054;2023-03-01T05:30:56;4.65;;;1.90;;
77022;SDS011;65952;51.440;-2.054;2023-03-01T05:33:23;5.15;;;2.00;;
77022;SDS011;65952;51.440;-2.054;2023-03-01T05:35:49;4.90;;;2.05;;
77022;SDS011;65952;51.440;-2.054;2023-03-01T05:38:16;7.00;;;2.10;;
77022;SDS011;65952;51.440;-2.054;2023-03-01T05:40:43;5.45;;;2.00;;
77022;SDS011;65952;51.440;-2.054;2023-03-01T05:43:09;7.80;;;2.58;;
77022;SDS011;65952;51.440;-2.054;2023-03-01T05:45:36;6.38;;;2.40;;
77022;SDS011;65952;51.440;-2.054;2023-03-01T05:48:03;4.78;;;2.15;;
77022;SDS011;65952;51.440;-2.054;2023-03-01T05:50:31;5.53;;;2.30;;
77022;SDS011;65952;51.440;-2.054;2023-03-01T05:52:59;5.45;;;2.03;;
77022;SDS011;65952;51.440;-2.054;2023-03-01T05:55:27;4.20;;;2.08;;
77022;SDS011;65952;51.440;-2.054;2023-03-01T05:57:54;4.93;;;2.35;;
77022;SDS011;65952;51.440;-2.054;2023-03-01T06:00:20;6.30;;;3.03;;
77022;SDS011;65952;51.440;-2.054;2023-03-01T06:02:48;4.85;;;2.25;;
77022;SDS011;65952;51.440;-2.054;2023-03-01T06:05:14;5.53;;;2.65;;
77022;SDS011;65952;51.440;-2.054;2023-03-01T06:07:40;5.00;;;2.33;;
77022;SDS011;65952;51.440;-2.054;2023-03-01T06:10:06;3.03;;;1.77;;
77022;SDS011;65952;51.440;-2.054;2023-03-01T06:12:34;5.03;;;2.30;;
77022;SDS011;65952;51.440;-2.054;2023-03-01T06:15:01;7.10;;;2.85;;
77022;SDS011;65952;51.440;-2.054;2023-03-01T06:17:31;6.18;;;3.05;;
77022;SDS011;65952;51.440;-2.054;2023-03-01T06:19:57;7.43;;;2.70;;
77022;SDS011;65952;51.440;-2.054;2023-03-01T06:22:23;5.78;;;2.85;;
77022;SDS011;65952;51.440;-2.054;2023-03-01T06:24:48;5.90;;;2.80;;
77022;SDS011;65952;51.440;-2.054;2023-03-01T06:27:14;7.57;;;2.65;;
77022;SDS011;65952;51.440;-2.054;2023-03-01T06:29:39;8.57;;;2.65;;
77022;SDS011;65952;51.440;-2.054;2023-03-01T06:32:04;9.93;;;2.97;;
77022;SDS011;65952;51.440;-2.054;2023-03-01T06:34:30;5.07;;;2.35;;
77022;SDS011;65952;51.440;-2.054;2023-03-01T06:36:56;5.47;;;2.55;;
77022;SDS011;65952;51.440;-2.054;2023-03-01T06:39:21;8.98;;;3.15;;
77022;SDS011;65952;51.440;-2.054;2023-03-01T06:41:47;4.50;;;2.40;;
77022;SDS011;65952;51.440;-2.054;2023-03-01T06:44:12;6.55;;;2.92;;
77022;SDS011;65952;51.440;-2.054;2023-03-01T06:46:38;7.53;;;2.60;;
77022;SDS011;65952;51.440;-2.054;2023-03-01T06:49:05;6.72;;;2.70;;
77022;SDS011;65952;51.440;-2.054;2023-03-01T06:51:34;4.93;;;2.30;;
77022;SDS011;65952;51.440;-2.054;2023-03-01T06:54:00;8.30;;;3.05;;
77022;SDS011;65952;51.440;-2.054;2023-03-01T06:56:26;9.10;;;2.65;;
77022;SDS011;65952;51.440;-2.054;2023-03-01T06:58:51;9.40;;;3.42;;
77022;SDS011;65952;51.440;-2.054;2023-03-01T07:01:16;6.60;;;3.03;;
77022;SDS011;65952;51.440;-2.054;2023-03-01T07:03:42;23.02;;;5.28;;
77022;SDS011;65952;51.440;-2.054;2023-03-01T07:06:09;9.55;;;3.30;;
77022;SDS011;65952;51.440;-2.054;2023-03-01T07:08:34;7.00;;;2.30;;
77022;SDS011;65952;51.440;-2.054;2023-03-01T07:11:00;7.05;;;3.47;;
77022;SDS011;65952;51.440;-2.054;2023-03-01T07:13:27;6.43;;;2.88;;
77022;SDS011;65952;51.440;-2.054;2023-03-01T07:15:53;7.40;;;3.28;;
77022;SDS011;65952;51.440;-2.054;2023-03-01T07:18:18;7.53;;;3.20;;
77022;SDS011;65952;51.440;-2.054;2023-03-01T07:20:43;8.57;;;4.00;;
77022;SDS011;65952;51.440;-2.054;2023-03-01T07:23:09;9.30;;;3.65;;
77022;SDS011;65952;51.440;-2.054;2023-03-01T07:25:34;5.90;;;2.83;;
77022;SDS011;65952;51.440;-2.054;2023-03-01T07:28:00;7.10;;;3.17;;
77022;SDS011;65952;51.440;-2.054;2023-03-01T07:30:26;6.15;;;2.50;;
77022;SDS011;65952;51.440;-2.054;2023-03-01T07:32:53;5.72;;;2.33;;
77022;SDS011;65952;51.440;-2.054;2023-03-01T07:35:20;8.65;;;2.70;;
77022;SDS011;65952;51.440;-2.054;2023-03-01T07:37:45;6.03;;;2.45;;
77022;SDS011;65952;51.440;-2.054;2023-03-01T07:40:11;5.75;;;2.47;;
77022;SDS011;65952;51.440;-2.054;2023-03-01T07:42:37;8.10;;;2.70;;
77022;SDS011;65952;51.440;-2.054;2023-03-01T07:45:03;6.30;;;2.30;;
77022;SDS011;65952;51.440;-2.054;2023-03-01T07:47:30;6.18;;;2.25;;
77022;SDS011;65952;51.440;-2.054;2023-03-01T07:49:55;6.70;;;2.38;;
77022;SDS011;65952;51.440;-2.054;2023-03-01T07:52:21;5.55;;;2.50;;
77022;SDS011;65952;51.440;-2.054;2023-03-01T07:54:46;7.07;;;2.70;;
77022;SDS011;65952;51.440;-2.054;2023-03-01T07:57:11;7.18;;;2.80;;
77022;SDS011;65952;51.440;-2.054;2023-03-01T07:59:37;4.85;;;2.05;;
77022;SDS011;65952;51.440;-2.054;2023-03-01T08:02:02;4.80;;;2.35;;
77022;SDS011;65952;51.440;-2.054;2023-03-01T08:04:28;6.55;;;2.30;;
77022;SDS011;65952;51.440;-2.054;2023-03-01T08:06:54;5.25;;;1.90;;
77022;SDS011;65952;51.440;-2.054;2023-03-01T08:09:20;7.10;;;2.47;;
77022;SDS011;65952;51.440;-2.054;2023-03-01T08:11:46;7.22;;;2.45;;
77022;SDS011;65952;51.440;-2.054;2023-03-01T08:14:11;6.63;;;2.05;;
77022;SDS011;65952;51.440;-2.054;2023-03-01T08:16:37;7.22;;;2.22;;
77022;SDS011;65952;51.440;-2.054;2023-03-01T08:19:06;4.97;;;2.03;;
77022;SDS011;65952;51.440;-2.054;2023-03-01T08:21:33;4.68;;;1.90;;
77022;SDS011;65952;51.440;-2.054;2023-03-01T08:24:00;4.65;;;2.05;;
77022;SDS011;65952;51.440;-2.054;2023-03-01T08:26:26;3.33;;;1.45;;
77022;SDS011;65952;51.440;-2.054;2023-03-01T08:28:51;4.55;;;1.98;;
77022;SDS011;65952;51.440;-2.054;2023-03-01T08:31:18;6.05;;;2.00;;
77022;SDS011;65952;51.440;-2.054;2023-03-01T08:33:48;4.82;;;2.00;;
77022;SDS011;65952;51.440;-2.054;2023-03-01T08:36:23;4.30;;;1.85;;
77022;SDS011;65952;51.440;-2.054;2023-03-01T08:38:51;4.97;;;1.63;;
77022;SDS011;65952;51.440;-2.054;2023-03-01T08:41:17;6.75;;;2.22;;
77022;SDS011;65952;51.440;-2.054;2023-03-01T08:43:43;4.97;;;1.75;;
77022;SDS011;65952;51.440;-2.054;2023-03-01T08:46:08;3.70;;;1.77;;
77022;SDS011;65952;51.440;-2.054;2023-03-01T08:48:34;6.45;;;2.30;;
77022;SDS011;65952;51.440;-2.054;2023-03-01T08:53:42;5.82;;;1.98;;
77022;SDS011;65952;51.440;-2.054;2023-03-01T08:56:08;4.43;;;2.00;;
77022;SDS011;65952;51.440;-2.054;2023-03-01T08:58:34;5.22;;;2.10;;
77022;SDS011;65952;51.440;-2.054;2023-03-01T09:01:00;5.15;;;2.13;;
77022;SDS011;65952;51.440;-2.054;2023-03-01T09:03:26;3.80;;;1.70;;
77022;SDS011;65952;51.440;-2.054;2023-03-01T09:05:52;4.32;;;1.83;;
77022;SDS011;65952;51.440;-2.054;2023-03-01T09:08:18;4.13;;;1.60;;
77022;SDS011;65952;51.440;-2.054;2023-03-01T09:10:44;4.07;;;1.88;;
77022;SDS011;65952;51.440;-2.054;2023-03-01T09:13:10;6.25;;;1.88;;
77022;SDS011;65952;51.440;-2.054;2023-03-01T09:15:38;3.30;;;1.60;;
77022;SDS011;65952;51.440;-2.054;2023-03-01T09:18:04;6.35;;;2.60;;
77022;SDS011;65952;51.440;-2.054;2023-03-01T09:20:30;5.10;;;1.80;;
77022;SDS011;65952;51.440;-2.054;2023-03-01T09:22:56;4.78;;;2.13;;
77022;SDS011;65952;51.440;-2.054;2023-03-01T09:25:22;4.15;;;1.92;;
77022;SDS011;65952;51.440;-2.054;2023-03-01T09:27:52;5.20;;;2.20;;
77022;SDS011;65952;51.440;-2.054;2023-03-01T09:30:18;3.90;;;1.70;;
77022;SDS011;65952;51.440;-2.054;2023-03-01T09:32:43;4.20;;;1.88;;
77022;SDS011;65952;51.440;-2.054;2023-03-01T09:35:10;5.57;;;1.88;;
77022;SDS011;65952;51.440;-2.054;2023-03-01T09:37:36;3.75;;;1.70;;
77022;SDS011;65952;51.440;-2.054;2023-03-01T09:40:03;4.38;;;1.55;;
77022;SDS011;65952;51.440;-2.054;2023-03-01T09:42:32;4.22;;;1.55;;
77022;SDS011;65952;51.440;-2.054;2023-03-01T09:45:06;3.53;;;1.38;;
77022;SDS011;65952;51.440;-2.054;2023-03-01T09:47:36;2.60;;;1.45;;
77022;SDS011;65952;51.440;-2.054;2023-03-01T09:50:16;3.55;;;1.58;;
77022;SDS011;65952;51.440;-2.054;2023-03-01T09:52:47;5.07;;;1.48;;
77022;SDS011;65952;51.440;-2.054;2023-03-01T10:01:14;2.38;;;1.13;;
77022;SDS011;65952;51.440;-2.054;2023-03-01T10:04:03;2.72;;;1.40;;
77022;SDS011;65952;51.440;-2.054;2023-03-01T10:06:37;3.30;;;1.50;;
77022;SDS011;65952;51.440;-2.054;2023-03-01T10:09:13;2.77;;;1.50;;
77022;SDS011;65952;51.440;-2.054;2023-03-01T10:14:15;1.65;;;1.02;;
77022;SDS011;65952;51.440;-2.054;2023-03-01T10:16:53;2.55;;;1.10;;
77022;SDS011;65952;51.440;-2.054;2023-03-01T10:19:32;3.13;;;1.40;;
77022;SDS011;65952;51.440;-2.054;2023-03-01T10:22:05;3.25;;;1.40;;
77022;SDS011;65952;51.440;-2.054;2023-03-01T10:27:15;4.05;;;1.83;;
77022;SDS011;65952;51.440;-2.054;2023-03-01T10:32:26;2.40;;;1.30;;
77022;SDS011;65952;51.440;-2.054;2023-03-01T10:34:52;3.00;;;1.42;;
77022;SDS011;65952;51.440;-2.054;2023-03-01T10:37:18;4.18;;;1.65;;
77022;SDS011;65952;51.440;-2.054;2023-03-01T10:40:06;3.78;;;1.67;;
77022;SDS011;65952;51.440;-2.054;2023-03-01T10:42:38;3.45;;;1.60;;
77022;SDS011;65952;51.440;-2.054;2023-03-01T10:45:15;3.92;;;1.70;;
77022;SDS011;65952;51.440;-2.054;2023-03-01T10:47:44;3.42;;;1.40;;
77022;SDS011;65952;51.440;-2.054;2023-03-01T10:50:20;3.67;;;1.42;;
77022;SDS011;65952;51.440;-2.054;2023-03-01T10:53:00;2.60;;;1.40;;
77022;SDS011;65952;51.440;-2.054;2023-03-01T10:55:33;6.03;;;1.75;;
77022;SDS011;65952;51.440;-2.054;2023-03-01T10:58:20;9.32;;;1.70;;
77022;SDS011;65952;51.440;-2.054;2023-03-01T11:00:48;5.88;;;1.50;;
77022;SDS011;65952;51.440;-2.054;2023-03-01T11:03:28;3.63;;;1.60;;
77022;SDS011;65952;51.440;-2.054;2023-03-01T11:05:57;2.45;;;1.35;;
77022;SDS011;65952;51.440;-2.054;2023-03-01T11:08:35;4.50;;;1.80;;
77022;SDS011;65952;51.440;-2.054;2023-03-01T11:14:06;2.35;;;1.38;;
77022;SDS011;65952;51.440;-2.054;2023-03-01T11:16:44;5.25;;;2.13;;
77022;SDS011;65952;51.440;-2.054;2023-03-01T11:21:36;3.50;;;1.73;;
77022;SDS011;65952;51.440;-2.054;2023-03-01T11:24:06;5.38;;;2.08;;
77022;SDS011;65952;51.440;-2.054;2023-03-01T11:26:38;4.40;;;2.10;;
77022;SDS011;65952;51.440;-2.054;2023-03-01T11:29:12;4.30;;;1.80;;
77022;SDS011;65952;51.440;-2.054;2023-03-01T11:31:42;3.53;;;1.58;;
77022;SDS011;65952;51.440;-2.054;2023-03-01T11:34:13;4.78;;;1.70;;
77022;SDS011;65952;51.440;-2.054;2023-03-01T11:36:46;3.45;;;1.70;;
77022;SDS011;65952;51.440;-2.054;2023-03-01T11:41:48;5.93;;;1.75;;
77022;SDS011;65952;51.440;-2.054;2023-03-01T11:44:20;3.97;;;1.90;;
77022;SDS011;65952;51.440;-2.054;2023-03-01T12:01:15;2.05;;;1.20;;
77022;SDS011;65952;51.440;-2.054;2023-03-01T12:12:27;2.90;;;1.50;;
77022;SDS011;65952;51.440;-2.054;2023-03-01T12:18:18;5.07;;;1.88;;
77022;SDS011;65952;51.440;-2.054;2023-03-01T12:29:01;3.78;;;1.80;;
77022;SDS011;65952;51.440;-2.054;2023-03-01T12:31:51;4.57;;;1.83;;
77022;SDS011;65952;51.440;-2.054;2023-03-01T12:39:47;3.90;;;1.92;;
77022;SDS011;65952;51.440;-2.054;2023-03-01T12:42:36;4.00;;;1.70;;
77022;SDS011;65952;51.440;-2.054;2023-03-01T12:50:54;3.90;;;2.05;;
77022;SDS011;65952;51.440;-2.054;2023-03-01T12:53:26;5.38;;;2.13;;
77022;SDS011;65952;51.440;-2.054;2023-03-01T12:55:55;4.03;;;2.03;;
77022;SDS011;65952;51.440;-2.054;2023-03-01T12:58:29;5.03;;;2.53;;
77022;SDS011;65952;51.440;-2.054;2023-03-01T13:01:22;5.13;;;2.50;;
77022;SDS011;65952;51.440;-2.054;2023-03-01T13:17:52;3.28;;;1.70;;
77022;SDS011;65952;51.440;-2.054;2023-03-01T13:20:27;5.07;;;2.08;;
77022;SDS011;65952;51.440;-2.054;2023-03-01T13:28:40;4.35;;;1.90;;
77022;SDS011;65952;51.440;-2.054;2023-03-01T13:33:49;5.28;;;2.15;;
77022;SDS011;65952;51.440;-2.054;2023-03-01T13:37:03;3.47;;;1.80;;
77022;SDS011;65952;51.440;-2.054;2023-03-01T13:41:50;5.18;;;2.10;;
77022;SDS011;65952;51.440;-2.054;2023-03-01T14:01:03;3.47;;;1.90;;
77022;SDS011;65952;51.440;-2.054;2023-03-01T14:03:31;6.00;;;2.65;;
77022;SDS011;65952;51.440;-2.054;2023-03-01T14:08:29;2.63;;;1.60;;
77022;SDS011;65952;51.440;-2.054;2023-03-01T14:11:03;4.00;;;1.90;;
77022;SDS011;65952;51.440;-2.054;2023-03-01T14:19:13;3.80;;;1.85;;
77022;SDS011;65952;51.440;-2.054;2023-03-01T14:21:45;4.57;;;2.15;;
77022;SDS011;65952;51.440;-2.054;2023-03-01T14:24:18;5.22;;;2.00;;
77022;SDS011;65952;51.440;-2.054;2023-03-01T14:26:46;3.47;;;1.73;;
77022;SDS011;65952;51.440;-2.054;2023-03-01T14:31:51;4.30;;;2.10;;
77022;SDS011;65952;51.440;-2.054;2023-03-01T14:34:21;3.53;;;1.88;;
77022;SDS011;65952;51.440;-2.054;2023-03-01T14:36:48;4.00;;;1.90;;
77022;SDS011;65952;51.440;-2.054;2023-03-01T14:39:23;4.25;;;2.00;;
77022;SDS011;65952;51.440;-2.054;2023-03-01T14:41:51;4.75;;;2.00;;
77022;SDS011;65952;51.440;-2.054;2023-03-01T14:44:21;3.70;;;1.75;;
77022;SDS011;65952;51.440;-2.054;2023-03-01T14:46:51;4.68;;;1.73;;
77022;SDS011;65952;51.440;-2.054;2023-03-01T14:49:20;3.53;;;1.92;;
77022;SDS011;65952;51.440;-2.054;2023-03-01T14:52:02;3.78;;;2.00;;
77022;SDS011;65952;51.440;-2.054;2023-03-01T14:54:39;3.33;;;1.38;;
77022;SDS011;65952;51.440;-2.054;2023-03-01T14:57:15;4.15;;;1.80;;
77022;SDS011;65952;51.440;-2.054;2023-03-01T14:59:42;3.97;;;1.67;;
77022;SDS011;65952;51.440;-2.054;2023-03-01T15:02:11;4.82;;;1.40;;
77022;SDS011;65952;51.440;-2.054;2023-03-01T15:04:48;3.53;;;1.90;;
77022;SDS011;65952;51.440;-2.054;2023-03-01T15:07:16;2.25;;;1.50;;
77022;SDS011;65952;51.440;-2.054;2023-03-01T15:09:42;2.97;;;1.52;;
77022;SDS011;65952;51.440;-2.054;2023-03-01T15:14:53;4.00;;;1.90;;
77022;SDS011;65952;51.440;-2.054;2023-03-01T15:17:37;3.80;;;1.85;;
77022;SDS011;65952;51.440;-2.054;2023-03-01T15:20:04;3.42;;;1.83;;
77022;SDS011;65952;51.440;-2.054;2023-03-01T15:22:43;5.00;;;2.33;;
77022;SDS011;65952;51.440;-2.054;2023-03-01T15:25:19;4.67;;;2.07;;
77022;SDS011;65952;51.440;-2.054;2023-03-01T15:27:48;4.35;;;1.98;;
77022;SDS011;65952;51.440;-2.054;2023-03-01T15:30:20;5.45;;;1.75;;
77022;SDS011;65952;51.440;-2.054;2023-03-01T15:32:48;3.90;;;1.80;;
77022;SDS011;65952;51.440;-2.054;2023-03-01T15:35:45;3.30;;;1.70;;
77022;SDS011;65952;51.440;-2.054;2023-03-01T15:41:05;3.35;;;2.03;;
77022;SDS011;65952;51.440;-2.054;2023-03-01T15:43:47;3.35;;;1.83;;
77022;SDS011;65952;51.440;-2.054;2023-03-01T15:49:04;4.50;;;2.00;;
77022;SDS011;65952;51.440;-2.054;2023-03-01T15:51:44;3.75;;;2.10;;
77022;SDS011;65952;51.440;-2.054;2023-03-01T15:54:13;4.05;;;2.03;;
77022;SDS011;65952;51.440;-2.054;2023-03-01T15:56:45;3.97;;;1.67;;
77022;SDS011;65952;51.440;-2.054;2023-03-01T15:59:10;3.58;;;1.67;;
77022;SDS011;65952;51.440;-2.054;2023-03-01T16:01:38;3.28;;;1.80;;
77022;SDS011;65952;51.440;-2.054;2023-03-01T16:04:04;3.67;;;1.70;;
77022;SDS011;65952;51.440;-2.054;2023-03-01T16:06:29;3.03;;;1.55;;
77022;SDS011;65952;51.440;-2.054;2023-03-01T16:08:54;3.10;;;1.60;;
77022;SDS011;65952;51.440;-2.054;2023-03-01T16:11:20;3.42;;;1.67;;
77022;SDS011;65952;51.440;-2.054;2023-03-01T16:13:46;4.15;;;1.30;;
77022;SDS011;65952;51.440;-2.054;2023-03-01T16:16:12;2.25;;;1.40;;
77022;SDS011;65952;51.440;-2.054;2023-03-01T16:18:41;2.10;;;1.33;;
77022;SDS011;65952;51.440;-2.054;2023-03-01T16:21:10;2.08;;;1.40;;
77022;SDS011;65952;51.440;-2.054;2023-03-01T16:23:38;4.22;;;1.50;;
77022;SDS011;65952;51.440;-2.054;2023-03-01T16:26:03;2.78;;;1.60;;
77022;SDS011;65952;51.440;-2.054;2023-03-01T16:28:29;2.78;;;1.60;;
77022;SDS011;65952;51.440;-2.054;2023-03-01T16:30:54;3.50;;;1.45;;
77022;SDS011;65952;51.440;-2.054;2023-03-01T16:33:19;3.95;;;1.60;;
77022;SDS011;65952;51.440;-2.054;2023-03-01T16:35:45;3.00;;;1.50;;
77022;SDS011;65952;51.440;-2.054;2023-03-01T16:38:10;3.60;;;1.80;;
77022;SDS011;65952;51.440;-2.054;2023-03-01T16:40:35;3.00;;;1.73;;
77022;SDS011;65952;51.440;-2.054;2023-03-01T16:43:01;3.28;;;1.40;;
77022;SDS011;65952;51.440;-2.054;2023-03-01T16:45:27;6.32;;;1.90;;
77022;SDS011;65952;51.440;-2.054;2023-03-01T16:47:57;3.47;;;1.92;;
77022;SDS011;65952;51.440;-2.054;2023-03-01T16:50:23;3.83;;;1.63;;
77022;SDS011;65952;51.440;-2.054;2023-03-01T16:52:48;2.92;;;1.73;;
77022;SDS011;65952;51.440;-2.054;2023-03-01T16:55:14;3.22;;;1.60;;
77022;SDS011;65952;51.440;-2.054;2023-03-01T16:57:39;2.60;;;1.40;;
77022;SDS011;65952;51.440;-2.054;2023-03-01T17:00:06;3.28;;;1.52;;
77022;SDS011;65952;51.440;-2.054;2023-03-01T17:02:34;3.95;;;1.50;;
77022;SDS011;65952;51.440;-2.054;2023-03-01T17:05:00;4.05;;;1.63;;